Time;durP1;ratioP1;P1;durP2;ratioP2;P2;SDS_P1;SDS_P2;PMS_P1;PMS_P2;Temp;Humidity;BMP_temperature;BMP_pressure;BME280_temperature;BME280_humidity;BME280_pressure;Samples;Min_cycle;Max_cycle;Signal;HPM_P1;HPM_P2
2023/03/27 00:00:21;;;;;;;7.45;4.78;;;;;;;7.90;73.41;96306.97;10052531;29;20049;-76
2023/03/27 00:06:06;;;;;;;6.82;4.82;;;;;;;7.96;73.37;96291.34;10048700;29;20412;-77
2023/03/27 00:11:27;;;;;;;;;;;;;;;7.99;74.21;96289.41;10047311;29;20049;-77
2023/03/27 00:16:48;;;;;;;8.93;4.75;;;;;;;8.04;73.70;96282.75;10059487;29;19967;-76
2023/03/27 00:22:09;;;;;;;10.27;6.32;;;;;;;8.06;73.70;96277.28;10046698;29;20057;-77
2023/03/27 00:27:30;;;;;;;10.73;5.70;;;;;;;8.07;73.23;96278.72;10046944;29;20041;-77
2023/03/27 00:32:54;;;;;;;10.43;6.15;;;;;;;8.07;73.63;96273.16;10033143;29;20052;-77
2023/03/27 00:38:15;;;;;;;10.47;6.00;;;;;;;8.06;73.75;96277.28;10046944;29;20041;-77
2023/03/27 00:43:41;;;;;;;9.75;5.95;;;;;;;8.09;73.96;96272.56;10033029;29;20279;-76
2023/03/27 00:49:03;;;;;;;7.18;4.72;;;;;;;8.12;73.52;96263.72;10045864;29;20052;-76
2023/03/27 00:54:28;;;;;;;8.80;5.25;;;;;;;8.16;73.63;96268.75;10045579;29;20048;-77
2023/03/27 00:59:50;;;;;;;8.68;5.75;;;;;;;8.19;73.65;96268.25;10046072;29;20093;-76
2023/03/27 01:05:11;;;;;;;8.13;5.25;;;;;;;8.20;73.65;96272.50;10045043;29;20457;-76
2023/03/27 01:10:58;;;;;;;9.57;6.13;;;;;;;8.12;73.55;96263.72;10047884;29;20045;-77
2023/03/27 01:16:42;;;;;;;10.18;6.32;;;;;;;8.20;73.77;96264.16;10075232;29;20097;-76
2023/03/27 01:22:23;;;;;;;13.70;6.67;;;;;;;8.12;73.34;96263.72;10072951;29;20049;-76
2023/03/27 01:28:01;;;;;;;9.07;6.10;;;;;;;8.07;73.92;96266.88;10083168;29;20045;-77
2023/03/27 01:34:01;;;;;;;10.05;6.03;;;;;;;8.04;73.76;96266.06;10082903;29;20060;-77
2023/03/27 01:39:43;;;;;;;9.48;5.68;;;;;;;8.03;73.60;96259.06;10033171;29;20057;-76
2023/03/27 01:45:35;;;;;;;10.85;5.47;;;;;;;8.08;74.00;96257.94;10058605;29;20049;-76
2023/03/27 01:51:00;;;;;;;10.05;5.55;;;;;;;8.17;73.85;96261.88;10071375;29;20049;-77
2023/03/27 01:56:36;;;;;;;10.18;5.72;;;;;;;8.24;73.98;96267.13;10069953;29;20045;-76
2023/03/27 02:02:02;;;;;;;10.30;5.55;;;;;;;8.28;73.95;96270.13;10071335;29;20116;-77
2023/03/27 02:07:29;;;;;;;8.63;5.70;;;;;;;8.31;73.82;96273.75;10070040;29;20477;-76
2023/03/27 02:12:57;;;;;;;7.30;3.80;;;;;;;8.31;73.84;96270.97;10070773;29;20488;-76
2023/03/27 02:18:32;;;;;;;6.05;3.13;;;;;;;8.29;74.04;96277.13;10072716;29;20084;-76
2023/03/27 02:23:55;;;;;;;4.45;2.20;;;;;;;8.24;73.85;96288.66;10076663;29;20076;-77
2023/03/27 02:29:28;;;;;;;11.43;8.77;;;;;;;8.19;74.49;96296.03;10076249;29;20041;-77
2023/03/27 02:35:19;;;;;;;14.77;10.27;;;;;;;8.01;74.35;96295.09;10076276;29;20053;-76
2023/03/27 02:40:44;;;;;;;12.98;8.95;;;;;;;8.00;74.37;96297.13;10088848;29;20053;-76
2023/03/27 02:46:39;;;;;;;10.52;7.72;;;;;;;8.03;74.61;96303.53;10090873;29;20182;-76
2023/03/27 02:52:05;;;;;;;10.07;7.63;;;;;;;8.03;74.43;96309.09;10088622;29;20076;-77
2023/03/27 02:57:26;;;;;;;12.85;8.55;;;;;;;8.01;74.95;96320.09;10075833;29;20068;-76
2023/03/27 03:03:33;;;;;;;11.55;8.38;;;;;;;7.96;74.97;96338.59;10101872;29;20081;-77
2023/03/27 03:09:06;;;;;;;11.77;8.45;;;;;;;7.92;75.12;96343.94;10065121;29;20045;-76
2023/03/27 03:14:32;;;;;;;11.80;8.10;;;;;;;7.90;74.99;96354.91;10075797;29;20105;-76
2023/03/27 03:19:53;;;;;;;9.57;7.75;;;;;;;7.88;75.22;96357.59;10062228;29;20492;-76
2023/03/27 03:25:14;;;;;;;10.73;7.85;;;;;;;7.83;75.35;96366.31;10062445;29;20500;-76
2023/03/27 03:30:37;;;;;;;9.90;7.65;;;;;;;7.77;75.26;96377.81;10074473;29;20480;-77
2023/03/27 03:36:04;;;;;;;9.27;6.78;;;;;;;7.72;75.39;96382.44;10064700;29;20460;-77
2023/03/27 03:41:28;;;;;;;9.77;6.30;;;;;;;7.64;76.16;96390.31;10075192;29;20093;-76
2023/03/27 03:46:54;;;;;;;6.60;4.38;;;;;;;7.47;76.10;96404.59;10063500;29;20488;-76
2023/03/27 03:52:15;;;;;;;4.22;3.10;;;;;;;7.35;75.84;96415.00;10100177;29;20120;-77
2023/03/27 03:57:36;;;;;;;4.35;2.38;;;;;;;7.32;75.28;96422.44;10104818;29;20083;-77
2023/03/27 04:03:07;;;;;;;2.72;1.00;;;;;;;7.20;74.77;96446.00;10074366;29;20480;-77
2023/03/27 04:08:28;;;;;;;1.25;0.40;;;;;;;6.73;73.81;96484.78;10071994;29;20052;-77
2023/03/27 04:14:08;;;;;;;0.68;0.20;;;;;;;6.34;73.15;96498.28;10073378;29;20537;-77
2023/03/27 04:19:34;;;;;;;1.05;0.20;;;;;;;6.03;72.95;96510.19;10043405;29;20076;-76
2023/03/27 04:24:58;;;;;;;1.08;0.20;;;;;;;5.68;72.19;96530.06;10046237;29;20049;-77
2023/03/27 04:30:21;;;;;;;2.08;0.40;;;;;;;5.43;72.74;96562.97;10045967;29;20045;-76
2023/03/27 04:36:02;;;;;;;1.83;0.30;;;;;;;5.16;72.84;96568.72;10046183;29;20078;-76
2023/03/27 04:41:48;;;;;;;1.38;0.40;;;;;;;4.91;73.36;96588.44;10057240;29;20100;-77
2023/03/27 04:47:09;;;;;;;0.65;0.20;;;;;;;4.76;73.08;96608.84;10045404;29;20042;-79
2023/03/27 04:52:32;;;;;;;1.40;0.20;;;;;;;4.53;73.10;96620.31;10057741;29;20052;-79
2023/03/27 04:57:56;;;;;;;0.63;0.20;;;;;;;4.39;74.52;96624.09;10044098;29;20050;-76
2023/03/27 05:03:17;;;;;;;0.32;0.20;;;;;;;4.45;74.54;96649.41;10022895;29;20046;-79
2023/03/27 05:08:50;;;;;;;0.93;0.30;;;;;;;4.54;74.30;96676.34;10045749;29;20488;-76
2023/03/27 05:14:23;;;;;;;2.00;0.35;;;;;;;4.49;74.54;96685.63;10045582;29;20070;-78
2023/03/27 05:19:46;;;;;;;1.07;0.30;;;;;;;4.37;74.13;96693.75;10057117;29;20064;-79
2023/03/27 05:25:07;;;;;;;0.65;0.30;;;;;;;4.35;74.70;96712.22;10044147;29;20041;-79
2023/03/27 05:30:29;;;;;;;0.40;0.20;;;;;;;4.30;74.08;96714.66;10043346;29;20400;-79
2023/03/27 05:36:10;;;;;;;0.70;0.30;;;;;;;4.26;73.94;96730.22;10047842;29;20061;-79
2023/03/27 05:41:35;;;;;;;2.40;0.82;;;;;;;4.18;73.60;96746.91;10043659;29;20528;-79
2023/03/27 05:46:58;;;;;;;1.10;0.30;;;;;;;4.11;74.67;96766.34;10056651;29;20042;-79
2023/03/27 05:52:23;;;;;;;0.90;0.30;;;;;;;4.04;74.78;96770.69;10045394;29;20038;-80
2023/03/27 05:57:49;;;;;;;0.82;0.30;;;;;;;4.02;74.99;96789.84;10052348;29;20057;-77
2023/03/27 06:03:11;;;;;;;0.85;0.30;;;;;;;3.98;74.80;96806.13;10046274;29;20049;-76
2023/03/27 06:08:52;;;;;;;1.77;0.73;;;;;;;4.10;74.61;96818.09;10053021;29;20416;-76
2023/03/27 06:14:15;;;;;;;1.33;0.30;;;;;;;4.06;73.73;96842.66;10038237;29;20112;-76
2023/03/27 06:19:56;;;;;;;1.23;0.40;;;;;;;4.07;74.00;96857.91;10013836;29;20129;-76
2023/03/27 06:25:21;;;;;;;1.75;0.32;;;;;;;4.18;73.38;96868.44;10024768;29;20521;-76
2023/03/27 06:30:43;;;;;;;;;;;;;;;4.16;74.03;96879.34;10026179;29;20570;-80
2023/03/27 06:36:31;;;;;;;0.93;0.40;;;;;;;4.32;73.66;96891.63;10016486;29;20287;-79
2023/03/27 06:41:55;;;;;;;1.00;0.40;;;;;;;4.52;73.87;96902.78;10015986;29;20121;-79
2023/03/27 06:47:20;;;;;;;1.42;0.40;;;;;;;4.76;73.37;96907.44;10037242;29;20404;-79
2023/03/27 06:53:07;;;;;;;1.17;0.40;;;;;;;5.25;72.99;96916.59;10019213;29;20046;-76
2023/03/27 06:58:46;;;;;;;2.05;0.60;;;;;;;6.01;69.70;96918.03;10019428;29;20050;-76
2023/03/27 07:04:07;;;;;;;1.77;0.60;;;;;;;7.39;69.64;96928.81;10010116;29;20473;-76
2023/03/27 07:09:40;;;;;;;1.50;0.60;;;;;;;9.57;66.73;96947.97;10016602;29;20512;-77
2023/03/27 07:15:05;;;;;;;1.90;0.50;;;;;;;11.47;58.00;96956.97;10018466;29;20037;-77
2023/03/27 07:20:27;;;;;;;2.40;0.50;;;;;;;9.20;60.47;96965.28;10043046;29;20082;-76
2023/03/27 07:25:51;;;;;;;1.23;0.60;;;;;;;7.59;58.68;96985.72;10039443;29;20055;-77
2023/03/27 07:31:26;;;;;;;2.10;0.70;;;;;;;6.55;60.30;96986.94;10037393;29;20050;-76
2023/03/27 07:37:08;;;;;;;1.45;0.50;;;;;;;6.20;63.12;97008.72;10004193;29;20042;-76
2023/03/27 07:42:34;;;;;;;2.50;1.10;;;;;;;5.97;63.15;97011.91;10012031;29;20064;-77
2023/03/27 07:48:08;;;;;;;;;;;;;;;6.09;62.88;97039.06;10061899;29;20069;-77
2023/03/27 07:53:29;;;;;;;2.28;0.80;;;;;;;6.01;63.88;97042.69;10023936;29;19948;-76
2023/03/27 07:59:00;;;;;;;3.47;0.90;;;;;;;5.96;62.68;97054.78;10010615;29;20050;-76
2023/03/27 08:04:22;;;;;;;2.25;0.65;;;;;;;5.88;63.34;97064.50;9988239;29;20054;-77
2023/03/27 08:09:57;;;;;;;3.08;0.77;;;;;;;6.02;62.54;97082.94;10009966;29;20042;-77
2023/03/27 08:15:19;;;;;;;4.90;1.15;;;;;;;6.13;63.44;97089.22;9994442;29;20054;-77
2023/03/27 08:20:54;;;;;;;2.97;1.17;;;;;;;6.08;61.88;97093.00;10032773;29;20058;-76
2023/03/27 08:26:16;;;;;;;2.65;1.20;;;;;;;5.81;61.39;97115.94;10046517;29;20049;-77
2023/03/27 08:31:49;;;;;;;3.45;0.77;;;;;;;6.03;62.69;97134.25;10046945;29;20060;-76
2023/03/27 08:37:11;;;;;;;2.72;0.80;;;;;;;7.06;62.44;97136.84;10059009;29;20113;-76
2023/03/27 08:42:43;;;;;;;2.03;0.68;;;;;;;16.49;56.14;97151.91;10060904;29;20445;-77
2023/03/27 08:48:10;;;;;;;1.45;0.60;;;;;;;16.02;43.41;97166.44;10043097;29;20049;-76
2023/03/27 08:53:46;;;;;;;1.20;0.60;;;;;;;13.16;44.19;97170.38;10053227;29;20476;-77
2023/03/27 08:59:11;;;;;;;2.42;0.80;;;;;;;11.73;47.68;97173.59;10050047;29;20045;-76
2023/03/27 09:05:06;;;;;;;1.55;0.68;;;;;;;10.80;44.54;97182.38;10062105;29;20476;-77
2023/03/27 09:10:48;;;;;;;1.55;0.47;;;;;;;10.65;46.17;97199.66;10058877;29;20453;-77
2023/03/27 09:16:30;;;;;;;1.45;0.40;;;;;;;9.93;45.58;97212.09;10051730;29;20053;-77
2023/03/27 09:21:56;;;;;;;1.83;0.40;;;;;;;18.56;43.93;97217.00;10083668;29;20049;-77
2023/03/27 09:27:34;;;;;;;1.00;0.30;;;;;;;29.14;32.28;97234.06;10069433;29;20552;-79
2023/03/27 09:33:11;;;;;;;1.27;0.38;;;;;;;32.44;20.55;97233.88;10074166;29;20037;-79
2023/03/27 09:38:38;;;;;;;1.65;0.40;;;;;;;32.69;16.90;97246.13;10085324;29;20044;-79
2023/03/27 09:44:09;;;;;;;1.10;0.30;;;;;;;25.35;19.75;97254.19;10076516;29;20045;-80
2023/03/27 09:49:33;;;;;;;1.60;0.50;;;;;;;29.84;16.93;97257.47;10087997;29;20045;-80
2023/03/27 09:55:01;;;;;;;0.88;0.30;;;;;;;34.48;13.25;97265.88;10074003;29;20108;-81
2023/03/27 10:00:32;;;;;;;2.45;0.32;;;;;;;32.55;12.00;97283.41;10073284;29;20071;-80
2023/03/27 10:06:09;;;;;;;0.80;0.30;;;;;;;25.52;13.89;97291.38;10072601;29;20041;-80
2023/03/27 10:12:06;;;;;;;0.90;0.32;;;;;;;22.83;15.79;97295.13;10074223;29;20056;-80
2023/03/27 10:17:38;;;;;;;1.58;0.50;;;;;;;21.98;16.44;97303.88;10083825;29;20060;-80
2023/03/27 10:23:07;;;;;;;1.38;0.40;;;;;;;18.56;18.24;97310.28;10096469;29;20045;-78
2023/03/27 10:28:34;;;;;;;1.80;0.30;;;;;;;25.65;18.00;97313.50;10071126;29;20407;-80
2023/03/27 10:34:35;;;;;;;1.35;0.40;;;;;;;33.18;10.62;97319.91;10090560;29;20045;-81
2023/03/27 10:40:17;;;;;;;0.55;0.30;;;;;;;31.17;11.17;97324.84;10089811;29;20064;-80
2023/03/27 10:45:55;;;;;;;2.38;0.30;;;;;;;25.03;13.28;97328.38;10074905;29;20393;-78
2023/03/27 10:51:23;;;;;;;1.33;0.47;;;;;;;21.80;15.34;97336.94;10073883;29;20479;-78
2023/03/27 10:57:15;;;;;;;1.50;0.50;;;;;;;22.19;16.66;97339.03;10076553;29;20132;-78
2023/03/27 11:02:40;;;;;;;2.35;0.70;;;;;;;21.26;15.83;97346.66;10074170;29;20056;-79
2023/03/27 11:08:04;;;;;;;1.88;0.50;;;;;;;19.83;17.04;97351.25;10078081;29;20484;-78
2023/03/27 11:13:28;;;;;;;1.38;0.50;;;;;;;17.21;18.24;97363.75;10064775;29;20049;-77
2023/03/27 11:18:56;;;;;;;2.38;0.40;;;;;;;16.00;19.89;97374.63;10066271;29;20397;-77
2023/03/27 11:24:37;;;;;;;3.33;0.43;;;;;;;15.02;21.55;97378.22;10071864;29;20056;-77
2023/03/27 11:30:15;;;;;;;2.30;0.57;;;;;;;14.01;22.99;97405.84;10085544;29;20065;-77
2023/03/27 11:35:48;;;;;;;1.88;0.40;;;;;;;12.84;24.64;97410.41;10078317;29;20147;-77
2023/03/27 11:42:01;;;;;;;1.60;0.70;;;;;;;12.77;26.85;97411.44;10089131;29;20061;-78
2023/03/27 11:47:35;;;;;;;1.73;0.45;;;;;;;14.62;26.72;97416.44;10102896;29;20053;-78
2023/03/27 11:53:11;;;;;;;3.47;0.50;;;;;;;16.43;24.25;97415.78;10082324;29;20049;-77
2023/03/27 11:58:56;;;;;;;3.45;0.68;;;;;;;16.10;23.93;97410.94;10065287;29;20060;-77
2023/03/27 12:04:32;;;;;;;3.88;0.35;;;;;;;15.78;23.38;97407.50;10071432;29;20542;-78
2023/03/27 12:10:45;;;;;;;3.72;0.40;;;;;;;13.67;25.35;97421.69;10069233;29;20389;-77
2023/03/27 12:16:32;;;;;;;2.05;0.55;;;;;;;11.95;28.18;97414.63;10106564;29;20045;-76
2023/03/27 12:22:37;;;;;;;4.13;0.93;;;;;;;11.65;29.59;97435.94;10069994;29;20431;-77
2023/03/27 12:28:53;;;;;;;3.38;0.93;;;;;;;12.74;28.93;97428.72;10068859;29;20056;-77
2023/03/27 12:34:36;;;;;;;2.67;0.55;;;;;;;12.51;28.12;97418.41;10064881;29;20103;-78
2023/03/27 12:39:58;;;;;;;1.40;0.40;;;;;;;12.77;27.16;97439.44;10053861;29;20049;-77
2023/03/27 12:45:23;;;;;;;2.05;0.45;;;;;;;13.36;26.34;97428.53;10053913;29;20610;-77
2023/03/27 12:50:57;;;;;;;2.30;0.35;;;;;;;14.03;26.18;97422.75;10054810;29;20052;-77
2023/03/27 12:57:11;;;;;;;1.02;0.30;;;;;;;13.92;25.02;97429.97;10054171;29;20052;-77
2023/03/27 13:11:21;;;;;;;1.98;0.40;;;;;;;13.39;25.17;97432.19;10104684;29;20069;-77
2023/03/27 13:16:52;;;;;;;3.10;0.40;;;;;;;13.79;25.02;97441.91;10089585;29;20065;-77
2023/03/27 13:22:47;;;;;;;1.83;0.30;;;;;;;13.87;25.05;97456.34;10094301;29;20105;-77
2023/03/27 13:43:36;;;;;;;3.80;0.40;;;;;;;13.59;24.60;97432.47;10027712;29;20087;-78
2023/03/27 13:49:30;;;;;;;3.13;0.40;;;;;;;13.08;24.54;97461.41;10001419;29;20133;-77
2023/03/27 13:55:03;;;;;;;2.97;0.50;;;;;;;13.11;25.31;97462.22;10014148;29;20058;-77
2023/03/27 14:08:54;;;;;;;2.97;0.70;;;;;;;11.91;27.68;97494.78;10068187;29;20463;-77
2023/03/27 14:15:15;;;;;;;5.97;1.08;;;;;;;11.33;27.75;97487.13;10062977;29;20128;-77
2023/03/27 14:20:46;;;;;;;4.78;0.70;;;;;;;10.84;28.12;97492.53;10073241;29;20461;-77
2023/03/27 14:26:23;;;;;;;3.27;0.70;;;;;;;10.53;29.05;97493.44;10061263;29;20041;-77
2023/03/27 14:31:47;;;;;;;2.20;0.50;;;;;;;10.38;28.62;97482.69;10062254;29;20050;-77
2023/03/27 14:37:27;;;;;;;3.58;0.50;;;;;;;10.68;29.53;97505.47;10063259;29;20438;-77
2023/03/27 14:42:55;;;;;;;3.17;0.80;;;;;;;11.85;28.74;97503.53;10073036;29;20057;-77
2023/03/27 14:48:39;;;;;;;3.63;0.73;;;;;;;11.74;29.13;97509.84;10059237;29;20052;-77
2023/03/27 14:54:05;;;;;;;2.50;0.90;;;;;;;11.20;29.06;97522.00;10059744;29;20366;-77
2023/03/27 14:59:40;;;;;;;1.95;0.60;;;;;;;10.91;30.16;97513.94;10059671;29;20049;-77
2023/03/27 15:05:12;;;;;;;4.53;0.50;;;;;;;10.68;30.76;97516.63;10051607;29;20045;-77
2023/03/27 15:10:37;;;;;;;4.63;0.60;;;;;;;10.31;30.80;97517.81;10073077;29;20057;-77
2023/03/27 15:16:20;;;;;;;3.67;0.60;;;;;;;10.31;31.33;97534.56;10080816;29;20041;-77
2023/03/27 15:21:54;;;;;;;3.00;0.52;;;;;;;10.45;31.42;97548.72;10043297;29;20098;-77
2023/03/27 15:27:40;;;;;;;2.05;0.70;;;;;;;9.88;33.93;97544.22;10043432;29;20053;-77
2023/03/27 15:33:00;;;;;;;4.30;0.70;;;;;;;9.66;32.89;97549.03;10053149;29;20049;-76
2023/03/27 15:38:28;;;;;;;1.42;0.60;;;;;;;9.37;33.17;97557.53;10070747;29;20404;-79
2023/03/27 15:43:50;;;;;;;3.13;0.60;;;;;;;9.07;33.65;97578.38;10059097;29;20053;-76
2023/03/27 15:49:34;;;;;;;2.83;0.80;;;;;;;8.76;34.69;97578.28;10048992;29;20041;-77
2023/03/27 15:54:55;;;;;;;3.55;0.80;;;;;;;8.31;34.51;97584.13;10064063;29;20485;-76
2023/03/27 16:00:16;;;;;;;2.65;0.63;;;;;;;8.10;35.31;97602.66;10051770;29;20068;-77
2023/03/27 16:05:40;;;;;;;2.13;0.57;;;;;;;7.92;36.34;97618.72;10053614;29;20060;-76
2023/03/27 16:11:03;;;;;;;5.47;0.60;;;;;;;7.87;37.52;97614.16;10055584;29;20060;-76
2023/03/27 16:16:25;;;;;;;4.40;0.70;;;;;;;7.62;38.13;97631.00;10046297;29;20045;-75
2023/03/27 16:21:54;;;;;;;3.22;0.80;;;;;;;7.50;37.88;97636.38;10059709;29;20381;-77
2023/03/27 16:27:25;;;;;;;2.67;0.60;;;;;;;7.60;41.17;97667.69;10059564;29;20073;-77
2023/03/27 16:32:46;;;;;;;3.40;0.60;;;;;;;7.39;41.44;97678.56;10046998;29;20058;-78
2023/03/27 16:38:07;;;;;;;1.77;0.93;;;;;;;7.27;42.14;97692.22;10045072;29;20045;-77
2023/03/27 16:43:28;;;;;;;2.17;0.70;;;;;;;7.44;41.33;97686.63;10044283;29;20049;-75
2023/03/27 16:48:52;;;;;;;1.88;0.55;;;;;;;7.21;42.67;97693.78;10043574;29;20073;-75
2023/03/27 16:54:14;;;;;;;1.80;0.70;;;;;;;7.00;42.60;97714.34;10044464;29;20049;-75
2023/03/27 16:59:35;;;;;;;2.17;0.52;;;;;;;6.81;43.31;97730.84;10060000;29;20128;-77
2023/03/27 17:04:56;;;;;;;1.27;0.57;;;;;;;6.49;45.34;97735.19;10062933;29;20050;-78
2023/03/27 17:10:29;;;;;;;1.40;0.50;;;;;;;6.32;46.11;97751.78;10047296;29;20046;-78
2023/03/27 17:15:54;;;;;;;0.90;0.40;;;;;;;6.03;46.38;97757.72;10049423;29;20060;-79
2023/03/27 17:21:22;;;;;;;1.23;0.50;;;;;;;5.77;46.62;97758.19;10059045;29;20493;-80
2023/03/27 17:26:45;;;;;;;1.45;0.40;;;;;;;5.57;49.51;97754.41;10058131;29;20046;-80
2023/03/27 17:32:07;;;;;;;1.35;0.50;;;;;;;5.39;47.41;97759.09;10049040;29;20373;-77
2023/03/27 17:37:28;;;;;;;0.95;0.47;;;;;;;5.26;49.72;97766.91;10070624;29;20046;-77
2023/03/27 17:43:00;;;;;;;1.15;0.60;;;;;;;5.26;50.22;97764.16;10046691;29;20050;-79
2023/03/27 17:48:23;;;;;;;2.15;1.30;;;;;;;5.26;48.93;97773.19;10053703;29;20049;-79
2023/03/27 17:53:45;;;;;;;2.65;0.88;;;;;;;5.19;50.31;97773.94;10055343;29;20045;-79
2023/03/27 17:59:08;;;;;;;3.58;1.00;;;;;;;5.15;49.43;97784.66;10054008;29;20049;-77
2023/03/27 18:04:32;;;;;;;3.67;1.42;;;;;;;5.07;49.78;97778.41;10051898;29;20045;-77
2023/03/27 18:09:53;;;;;;;3.97;1.00;;;;;;;4.94;50.09;97790.41;10064105;29;20155;-77
2023/03/27 18:15:14;;;;;;;2.45;1.10;;;;;;;4.78;50.52;97784.16;10063864;29;20049;-77
2023/03/27 18:20:37;;;;;;;2.30;1.10;;;;;;;4.73;50.94;97798.16;10051435;29;20061;-76
2023/03/27 18:26:05;;;;;;;2.97;1.20;;;;;;;4.66;51.61;97799.66;10066049;29;20053;-78
2023/03/27 18:31:26;;;;;;;2.85;1.13;;;;;;;4.67;51.30;97814.97;10038584;29;20053;-78
2023/03/27 18:36:50;;;;;;;2.60;1.10;;;;;;;4.62;52.54;97818.63;10050958;29;20114;-78
2023/03/27 18:42:11;;;;;;;1.60;0.80;;;;;;;4.49;52.57;97824.34;10051525;29;20060;-77
2023/03/27 18:47:34;;;;;;;2.08;0.95;;;;;;;4.34;52.15;97833.34;10051239;29;20050;-78
2023/03/27 18:52:55;;;;;;;3.25;1.27;;;;;;;4.21;53.16;97825.97;10050523;29;20049;-77
2023/03/27 18:58:16;;;;;;;3.40;1.52;;;;;;;4.14;54.18;97832.22;10050469;29;20053;-76
2023/03/27 19:03:37;;;;;;;3.40;1.10;;;;;;;4.03;54.01;97843.59;10048529;29;20049;-76
2023/03/27 19:08:58;;;;;;;2.40;1.00;;;;;;;4.01;54.26;97846.91;10062595;29;20057;-79
2023/03/27 19:14:21;;;;;;;4.00;1.05;;;;;;;3.94;53.08;97836.56;10049799;29;20046;-77
2023/03/27 19:20:09;;;;;;;3.15;0.90;;;;;;;3.91;53.42;97836.94;10081909;29;20116;-76
2023/03/27 19:25:49;;;;;;;2.58;0.73;;;;;;;3.84;52.95;97841.16;10076517;29;20085;-76
2023/03/27 19:31:11;;;;;;;1.83;0.65;;;;;;;3.74;52.74;97843.69;10073537;29;20045;-76
2023/03/27 19:36:32;;;;;;;3.05;0.85;;;;;;;3.67;53.16;97847.19;10086846;29;20045;-76
2023/03/27 19:41:54;;;;;;;2.67;0.80;;;;;;;3.66;53.55;97845.69;10074396;29;20507;-77
2023/03/27 19:47:15;;;;;;;2.67;0.75;;;;;;;3.68;53.39;97854.19;10086405;29;20065;-76
2023/03/27 19:52:36;;;;;;;2.95;0.60;;;;;;;3.82;52.74;97845.75;10086897;29;20049;-76
2023/03/27 20:06:27;;;;;;;2.15;0.90;;;;;;;4.10;52.79;97845.66;10100458;29;20059;-77
2023/03/27 20:11:48;;;;;;;2.88;0.90;;;;;;;3.98;51.94;97839.00;10074165;29;20048;-77
2023/03/27 20:17:17;;;;;;;2.33;0.70;;;;;;;3.78;52.79;97845.38;10081678;29;20049;-77
2023/03/27 20:22:50;;;;;;;2.95;0.85;;;;;;;3.64;53.12;97850.28;10089291;29;20045;-77
2023/03/27 20:28:17;;;;;;;3.75;0.90;;;;;;;3.55;52.63;97859.81;10081721;29;20528;-77
2023/03/27 20:34:45;;;;;;;3.67;1.30;;;;;;;3.47;53.54;97863.78;10073074;29;20045;-79
2023/03/27 20:41:14;;;;;;;;;;;;;;;3.35;53.88;97860.63;10089540;29;20100;-80
2023/03/27 20:47:41;;;;;;;3.60;1.02;;;;;;;3.28;53.76;97861.31;10090193;29;19977;-79
2023/03/27 20:53:31;;;;;;;2.83;0.85;;;;;;;3.22;54.08;97860.72;10088278;29;20057;-80
2023/03/27 20:58:55;;;;;;;5.07;1.00;;;;;;;3.14;54.25;97860.66;10085261;29;20444;-80
2023/03/27 21:04:52;;;;;;;3.40;1.38;;;;;;;3.09;55.08;97861.56;10079781;29;20052;-80
2023/03/27 21:10:41;;;;;;;4.53;1.25;;;;;;;3.02;54.17;97863.00;10078551;29;20056;-77
2023/03/27 21:16:02;;;;;;;2.67;0.85;;;;;;;3.09;54.19;97856.78;10071655;29;20045;-79
2023/03/27 21:21:52;;;;;;;4.50;1.20;;;;;;;3.06;55.03;97870.91;10020746;29;20495;-80
2023/03/27 21:27:41;;;;;;;5.07;0.98;;;;;;;2.95;54.65;97862.94;10021298;29;20054;-77
2023/03/27 21:33:03;;;;;;;4.03;1.10;;;;;;;2.81;55.04;97859.53;10028781;29;20056;-77
2023/03/27 21:38:23;;;;;;;3.30;1.17;;;;;;;2.76;55.18;97852.84;10016830;29;20041;-77
2023/03/27 21:43:44;;;;;;;2.88;0.90;;;;;;;2.71;55.53;97859.25;10016337;29;20057;-77
2023/03/27 21:49:06;;;;;;;2.55;0.90;;;;;;;2.67;55.48;97860.88;10015597;29;20401;-77
2023/03/27 21:54:27;;;;;;;2.42;0.80;;;;;;;2.69;55.31;97855.53;10016562;29;20042;-77
2023/03/27 21:59:47;;;;;;;3.35;1.00;;;;;;;2.65;55.62;97863.44;10015420;29;20052;-77
2023/03/27 22:05:09;;;;;;;1.35;0.80;;;;;;;2.56;55.83;97861.88;10028213;29;20434;-77
2023/03/27 22:10:30;;;;;;;2.97;0.90;;;;;;;2.57;55.93;97858.59;10015048;29;20477;-77
2023/03/27 22:15:51;;;;;;;1.17;0.50;;;;;;;2.53;55.91;97862.97;10015010;29;20409;-77
2023/03/27 22:21:17;;;;;;;1.00;0.57;;;;;;;2.48;56.19;97861.81;10049618;29;20489;-77
2023/03/27 22:26:38;;;;;;;1.83;0.50;;;;;;;2.41;56.76;97859.72;10052512;29;20069;-77
2023/03/27 22:32:00;;;;;;;0.98;0.57;;;;;;;2.36;56.64;97860.59;10065654;29;20101;-78
2023/03/27 22:37:23;;;;;;;2.42;0.60;;;;;;;2.35;56.82;97858.38;10051939;29;20061;-78
2023/03/27 22:42:44;;;;;;;2.13;0.50;;;;;;;2.26;56.98;97863.06;10052999;29;20546;-77
2023/03/27 22:48:08;;;;;;;1.45;0.40;;;;;;;2.21;57.19;97866.69;10052048;29;20056;-77
2023/03/27 22:53:30;;;;;;;1.05;0.43;;;;;;;2.14;57.31;97875.63;10064720;29;20056;-77
2023/03/27 22:58:51;;;;;;;1.58;0.40;;;;;;;2.15;57.67;97868.09;10051540;29;20445;-78
2023/03/27 23:04:12;;;;;;;2.17;0.57;;;;;;;2.14;57.38;97880.38;10051546;29;20056;-77
2023/03/27 23:09:33;;;;;;;1.65;0.40;;;;;;;2.16;57.34;97877.84;10051254;29;20046;-78
2023/03/27 23:14:55;;;;;;;3.00;0.55;;;;;;;2.11;57.28;97873.19;10038853;29;20045;-78
2023/03/27 23:20:16;;;;;;;2.72;0.50;;;;;;;2.14;57.17;97856.34;10051089;29;20061;-78
2023/03/27 23:25:41;;;;;;;2.20;0.55;;;;;;;2.17;58.03;97871.06;10051592;29;20056;-77
2023/03/27 23:31:03;;;;;;;1.92;0.50;;;;;;;2.14;57.42;97883.88;10051619;29;20094;-78
2023/03/27 23:36:24;;;;;;;2.67;0.50;;;;;;;2.11;57.69;97879.44;10063834;29;20049;-77
2023/03/27 23:41:45;;;;;;;2.13;0.40;;;;;;;2.19;57.88;97896.03;10050815;29;20053;-77
2023/03/27 23:47:06;;;;;;;1.98;0.60;;;;;;;2.22;57.96;97901.22;10037445;29;20053;-77
2023/03/27 23:52:27;;;;;;;1.48;0.35;;;;;;;2.40;57.70;97902.31;10050729;29;20046;-78
2023/03/27 23:57:48;;;;;;;1.13;0.40;;;;;;;2.50;57.59;97892.31;10050074;29;20090;-77
